sensor_id;sensor_type;location;lat;lon;timestamp;temperature;humidity
38938;DHT22;24727;51.974;20.868;2022-12-07T00:00:26;2.10;93.10
38938;DHT22;24727;51.974;20.868;2022-12-07T00:03:16;2.10;93.70
38938;DHT22;24727;51.974;20.868;2022-12-07T00:06:10;2.20;94.10
38938;DHT22;24727;51.974;20.868;2022-12-07T00:08:38;2.10;94.60
38938;DHT22;24727;51.974;20.868;2022-12-07T00:11:15;2.10;95.10
38938;DHT22;24727;51.974;20.868;2022-12-07T00:13:54;2.10;95.40
38938;DHT22;24727;51.974;20.868;2022-12-07T00:16:29;2.10;95.90
38938;DHT22;24727;51.974;20.868;2022-12-07T00:18:55;2.20;96.40
38938;DHT22;24727;51.974;20.868;2022-12-07T00:21:25;2.20;96.80
38938;DHT22;24727;51.974;20.868;2022-12-07T00:23:54;2.20;97.10
38938;DHT22;24727;51.974;20.868;2022-12-07T00:26:28;2.20;97.40
38938;DHT22;24727;51.974;20.868;2022-12-07T00:29:02;2.20;97.80
38938;DHT22;24727;51.974;20.868;2022-12-07T00:31:32;2.20;98.10
38938;DHT22;24727;51.974;20.868;2022-12-07T00:34:00;2.20;98.30
38938;DHT22;24727;51.974;20.868;2022-12-07T00:36:29;2.20;98.50
38938;DHT22;24727;51.974;20.868;2022-12-07T00:39:00;2.20;98.70
38938;DHT22;24727;51.974;20.868;2022-12-07T00:41:28;2.20;98.90
38938;DHT22;24727;51.974;20.868;2022-12-07T00:43:57;2.30;99.20
38938;DHT22;24727;51.974;20.868;2022-12-07T00:46:24;2.30;99.30
38938;DHT22;24727;51.974;20.868;2022-12-07T00:48:51;2.30;99.50
38938;DHT22;24727;51.974;20.868;2022-12-07T00:51:20;2.30;99.60
38938;DHT22;24727;51.974;20.868;2022-12-07T00:53:47;2.30;99.60
38938;DHT22;24727;51.974;20.868;2022-12-07T00:56:24;2.30;99.70
38938;DHT22;24727;51.974;20.868;2022-12-07T01:01:33;2.30;99.90
38938;DHT22;24727;51.974;20.868;2022-12-07T01:03:59;2.30;99.90
38938;DHT22;24727;51.974;20.868;2022-12-07T01:06:30;2.30;99.90
38938;DHT22;24727;51.974;20.868;2022-12-07T01:09:09;2.30;99.90
38938;DHT22;24727;51.974;20.868;2022-12-07T01:11:43;2.30;99.90
38938;DHT22;24727;51.974;20.868;2022-12-07T01:14:09;2.30;99.90
38938;DHT22;24727;51.974;20.868;2022-12-07T01:16:35;2.20;99.90
38938;DHT22;24727;51.974;20.868;2022-12-07T01:19:02;2.20;99.90
38938;DHT22;24727;51.974;20.868;2022-12-07T01:21:38;2.20;99.90
38938;DHT22;24727;51.974;20.868;2022-12-07T01:24:12;2.20;99.90
38938;DHT22;24727;51.974;20.868;2022-12-07T01:26:50;2.20;99.90
38938;DHT22;24727;51.974;20.868;2022-12-07T01:29:22;2.10;99.90
38938;DHT22;24727;51.974;20.868;2022-12-07T01:31:50;2.20;99.90
38938;DHT22;24727;51.974;20.868;2022-12-07T01:34:18;2.10;99.90
38938;DHT22;24727;51.974;20.868;2022-12-07T01:36:48;2.20;99.90
38938;DHT22;24727;51.974;20.868;2022-12-07T01:39:15;2.10;99.90
38938;DHT22;24727;51.974;20.868;2022-12-07T01:41:43;2.20;99.90
38938;DHT22;24727;51.974;20.868;2022-12-07T01:47:06;2.10;99.90
38938;DHT22;24727;51.974;20.868;2022-12-07T01:49:40;2.10;99.90
38938;DHT22;24727;51.974;20.868;2022-12-07T01:52:27;2.10;99.90
38938;DHT22;24727;51.974;20.868;2022-12-07T01:55:00;2.00;99.90
38938;DHT22;24727;51.974;20.868;2022-12-07T01:57:28;2.00;99.90
38938;DHT22;24727;51.974;20.868;2022-12-07T01:59:57;2.00;99.90
38938;DHT22;24727;51.974;20.868;2022-12-07T02:02:36;1.90;99.90
38938;DHT22;24727;51.974;20.868;2022-12-07T02:05:05;1.90;99.90
38938;DHT22;24727;51.974;20.868;2022-12-07T02:07:36;1.90;99.80
38938;DHT22;24727;51.974;20.868;2022-12-07T02:10:20;1.90;99.90
38938;DHT22;24727;51.974;20.868;2022-12-07T02:12:52;1.80;99.60
38938;DHT22;24727;51.974;20.868;2022-12-07T02:15:21;1.80;99.70
38938;DHT22;24727;51.974;20.868;2022-12-07T02:18:13;1.80;99.60
38938;DHT22;24727;51.974;20.868;2022-12-07T02:30:19;1.70;99.60
38938;DHT22;24727;51.974;20.868;2022-12-07T02:32:57;1.70;99.70
38938;DHT22;24727;51.974;20.868;2022-12-07T02:35:58;1.70;99.70
38938;DHT22;24727;51.974;20.868;2022-12-07T02:38:48;1.70;99.60
38938;DHT22;24727;51.974;20.868;2022-12-07T02:41:29;1.60;99.50
38938;DHT22;24727;51.974;20.868;2022-12-07T02:44:02;1.60;99.60
38938;DHT22;24727;51.974;20.868;2022-12-07T02:46:38;1.60;99.60
38938;DHT22;24727;51.974;20.868;2022-12-07T02:49:08;1.60;99.60
38938;DHT22;24727;51.974;20.868;2022-12-07T02:51:39;1.60;99.50
38938;DHT22;24727;51.974;20.868;2022-12-07T02:54:15;1.50;99.60
38938;DHT22;24727;51.974;20.868;2022-12-07T02:57:07;1.50;99.60
38938;DHT22;24727;51.974;20.868;2022-12-07T03:00:00;1.50;99.60
38938;DHT22;24727;51.974;20.868;2022-12-07T03:03:00;1.50;99.60
38938;DHT22;24727;51.974;20.868;2022-12-07T03:08:30;1.40;99.50
38938;DHT22;24727;51.974;20.868;2022-12-07T03:11:09;1.40;99.50
38938;DHT22;24727;51.974;20.868;2022-12-07T03:16:33;1.30;99.60
38938;DHT22;24727;51.974;20.868;2022-12-07T03:19:20;1.30;99.60
38938;DHT22;24727;51.974;20.868;2022-12-07T03:21:56;1.20;99.50
38938;DHT22;24727;51.974;20.868;2022-12-07T03:24:27;1.20;99.60
38938;DHT22;24727;51.974;20.868;2022-12-07T03:27:07;1.20;99.50
38938;DHT22;24727;51.974;20.868;2022-12-07T03:29:38;1.20;99.60
38938;DHT22;24727;51.974;20.868;2022-12-07T03:35:09;1.10;99.80
38938;DHT22;24727;51.974;20.868;2022-12-07T03:37:55;1.10;99.60
38938;DHT22;24727;51.974;20.868;2022-12-07T03:43:30;1.00;99.50
38938;DHT22;24727;51.974;20.868;2022-12-07T03:54:34;1.00;99.60
38938;DHT22;24727;51.974;20.868;2022-12-07T03:57:11;1.00;99.60
38938;DHT22;24727;51.974;20.868;2022-12-07T03:59:45;1.00;99.60
38938;DHT22;24727;51.974;20.868;2022-12-07T04:02:27;1.00;99.70
38938;DHT22;24727;51.974;20.868;2022-12-07T04:04:56;1.00;99.80
38938;DHT22;24727;51.974;20.868;2022-12-07T04:07:28;1.10;99.90
38938;DHT22;24727;51.974;20.868;2022-12-07T04:10:04;1.10;99.90
38938;DHT22;24727;51.974;20.868;2022-12-07T04:12:31;1.10;99.90
38938;DHT22;24727;51.974;20.868;2022-12-07T04:15:06;1.20;99.90
38938;DHT22;24727;51.974;20.868;2022-12-07T04:17:35;1.20;99.90
38938;DHT22;24727;51.974;20.868;2022-12-07T04:20:04;1.20;99.80
38938;DHT22;24727;51.974;20.868;2022-12-07T04:22:49;1.10;99.70
38938;DHT22;24727;51.974;20.868;2022-12-07T04:25:21;1.10;99.60
38938;DHT22;24727;51.974;20.868;2022-12-07T04:27:56;1.10;99.40
38938;DHT22;24727;51.974;20.868;2022-12-07T04:30:33;1.10;99.60
38938;DHT22;24727;51.974;20.868;2022-12-07T04:33:00;1.10;99.30
38938;DHT22;24727;51.974;20.868;2022-12-07T04:35:57;1.10;99.30
38938;DHT22;24727;51.974;20.868;2022-12-07T04:38:24;1.10;99.20
38938;DHT22;24727;51.974;20.868;2022-12-07T04:40:56;1.00;98.90
38938;DHT22;24727;51.974;20.868;2022-12-07T04:43:27;1.10;99.10
38938;DHT22;24727;51.974;20.868;2022-12-07T04:45:58;1.10;99.10
38938;DHT22;24727;51.974;20.868;2022-12-07T04:48:24;1.00;98.90
38938;DHT22;24727;51.974;20.868;2022-12-07T04:50:50;1.00;98.80
38938;DHT22;24727;51.974;20.868;2022-12-07T04:53:17;1.00;98.70
38938;DHT22;24727;51.974;20.868;2022-12-07T04:55:46;1.00;98.70
38938;DHT22;24727;51.974;20.868;2022-12-07T04:58:29;1.00;98.60
38938;DHT22;24727;51.974;20.868;2022-12-07T05:01:08;0.90;98.80
38938;DHT22;24727;51.974;20.868;2022-12-07T05:03:48;1.00;98.90
38938;DHT22;24727;51.974;20.868;2022-12-07T05:06:35;1.00;99.00
38938;DHT22;24727;51.974;20.868;2022-12-07T05:09:54;1.00;98.90
38938;DHT22;24727;51.974;20.868;2022-12-07T05:12:31;1.00;98.80
38938;DHT22;24727;51.974;20.868;2022-12-07T05:15:19;0.90;98.70
38938;DHT22;24727;51.974;20.868;2022-12-07T05:18:16;0.90;98.60
38938;DHT22;24727;51.974;20.868;2022-12-07T05:20:45;0.90;98.80
38938;DHT22;24727;51.974;20.868;2022-12-07T05:24:02;0.80;98.70
38938;DHT22;24727;51.974;20.868;2022-12-07T05:26:34;0.80;98.80
38938;DHT22;24727;51.974;20.868;2022-12-07T05:29:18;0.80;98.90
38938;DHT22;24727;51.974;20.868;2022-12-07T05:31:56;0.80;99.00
38938;DHT22;24727;51.974;20.868;2022-12-07T05:34:31;0.90;99.10
38938;DHT22;24727;51.974;20.868;2022-12-07T05:37:04;0.80;99.00
38938;DHT22;24727;51.974;20.868;2022-12-07T05:40:09;0.80;99.00
38938;DHT22;24727;51.974;20.868;2022-12-07T05:42:38;0.80;99.20
38938;DHT22;24727;51.974;20.868;2022-12-07T05:45:23;0.90;99.40
38938;DHT22;24727;51.974;20.868;2022-12-07T05:48:14;0.90;99.50
38938;DHT22;24727;51.974;20.868;2022-12-07T05:50:51;0.90;99.50
38938;DHT22;24727;51.974;20.868;2022-12-07T05:53:29;0.90;99.40
38938;DHT22;24727;51.974;20.868;2022-12-07T05:56:05;0.90;99.50
38938;DHT22;24727;51.974;20.868;2022-12-07T05:58:43;1.00;99.50
38938;DHT22;24727;51.974;20.868;2022-12-07T06:01:29;0.90;99.40
38938;DHT22;24727;51.974;20.868;2022-12-07T06:03:55;1.00;99.50
38938;DHT22;24727;51.974;20.868;2022-12-07T06:06:27;1.00;99.20
38938;DHT22;24727;51.974;20.868;2022-12-07T06:09:00;1.00;99.20
38938;DHT22;24727;51.974;20.868;2022-12-07T06:11:28;1.00;99.10
38938;DHT22;24727;51.974;20.868;2022-12-07T06:14:13;1.00;99.00
38938;DHT22;24727;51.974;20.868;2022-12-07T06:16:40;0.90;98.90
38938;DHT22;24727;51.974;20.868;2022-12-07T06:19:06;0.90;98.90
38938;DHT22;24727;51.974;20.868;2022-12-07T06:21:33;0.90;98.80
38938;DHT22;24727;51.974;20.868;2022-12-07T06:23:59;1.00;98.70
38938;DHT22;24727;51.974;20.868;2022-12-07T06:26:26;1.00;98.70
38938;DHT22;24727;51.974;20.868;2022-12-07T06:28:54;0.90;98.40
38938;DHT22;24727;51.974;20.868;2022-12-07T06:31:21;0.80;98.10
38938;DHT22;24727;51.974;20.868;2022-12-07T06:33:49;0.80;98.10
38938;DHT22;24727;51.974;20.868;2022-12-07T06:36:19;0.80;98.10
38938;DHT22;24727;51.974;20.868;2022-12-07T06:38:45;0.80;98.10
38938;DHT22;24727;51.974;20.868;2022-12-07T06:41:12;0.80;98.30
38938;DHT22;24727;51.974;20.868;2022-12-07T06:43:38;0.80;98.40
38938;DHT22;24727;51.974;20.868;2022-12-07T06:46:04;0.80;98.50
38938;DHT22;24727;51.974;20.868;2022-12-07T06:48:30;0.80;98.50
38938;DHT22;24727;51.974;20.868;2022-12-07T06:50:56;0.80;98.50
38938;DHT22;24727;51.974;20.868;2022-12-07T06:53:22;0.70;98.40
38938;DHT22;24727;51.974;20.868;2022-12-07T06:55:49;0.70;98.50
38938;DHT22;24727;51.974;20.868;2022-12-07T06:58:15;0.70;98.60
38938;DHT22;24727;51.974;20.868;2022-12-07T07:00:42;0.70;98.70
38938;DHT22;24727;51.974;20.868;2022-12-07T07:03:09;0.70;98.80
38938;DHT22;24727;51.974;20.868;2022-12-07T07:05:48;0.70;98.80
38938;DHT22;24727;51.974;20.868;2022-12-07T07:08:15;0.70;98.90
38938;DHT22;24727;51.974;20.868;2022-12-07T07:10:42;0.70;99.00
38938;DHT22;24727;51.974;20.868;2022-12-07T07:13:16;0.70;99.10
38938;DHT22;24727;51.974;20.868;2022-12-07T07:15:48;0.70;99.20
38938;DHT22;24727;51.974;20.868;2022-12-07T07:18:15;0.70;99.30
38938;DHT22;24727;51.974;20.868;2022-12-07T07:20:40;0.70;99.40
38938;DHT22;24727;51.974;20.868;2022-12-07T07:23:08;0.70;99.50
38938;DHT22;24727;51.974;20.868;2022-12-07T07:25:35;0.70;99.90
38938;DHT22;24727;51.974;20.868;2022-12-07T07:28:01;0.70;99.80
38938;DHT22;24727;51.974;20.868;2022-12-07T07:30:28;0.70;99.80
38938;DHT22;24727;51.974;20.868;2022-12-07T07:33:02;0.70;99.90
38938;DHT22;24727;51.974;20.868;2022-12-07T07:35:32;0.70;99.90
38938;DHT22;24727;51.974;20.868;2022-12-07T07:38:02;0.70;99.90
38938;DHT22;24727;51.974;20.868;2022-12-07T07:40:28;0.70;99.90
38938;DHT22;24727;51.974;20.868;2022-12-07T07:42:55;0.70;99.90
38938;DHT22;24727;51.974;20.868;2022-12-07T07:45:24;0.70;99.90
38938;DHT22;24727;51.974;20.868;2022-12-07T07:47:56;0.70;99.90
38938;DHT22;24727;51.974;20.868;2022-12-07T07:50:30;0.80;99.90
38938;DHT22;24727;51.974;20.868;2022-12-07T07:52:57;0.80;99.90
38938;DHT22;24727;51.974;20.868;2022-12-07T07:55:23;0.80;99.90
38938;DHT22;24727;51.974;20.868;2022-12-07T07:57:54;0.90;99.90
38938;DHT22;24727;51.974;20.868;2022-12-07T08:00:33;0.90;99.90
38938;DHT22;24727;51.974;20.868;2022-12-07T08:03:01;0.90;99.90
38938;DHT22;24727;51.974;20.868;2022-12-07T08:05:37;0.90;99.90
38938;DHT22;24727;51.974;20.868;2022-12-07T08:08:04;1.00;99.90
38938;DHT22;24727;51.974;20.868;2022-12-07T08:10:31;1.00;99.90
38938;DHT22;24727;51.974;20.868;2022-12-07T08:12:58;1.00;99.90
38938;DHT22;24727;51.974;20.868;2022-12-07T08:15:39;1.00;99.90
38938;DHT22;24727;51.974;20.868;2022-12-07T08:18:08;1.10;99.90
38938;DHT22;24727;51.974;20.868;2022-12-07T08:20:43;1.10;99.90
38938;DHT22;24727;51.974;20.868;2022-12-07T08:23:10;1.10;99.90
38938;DHT22;24727;51.974;20.868;2022-12-07T08:25:37;1.10;99.90
38938;DHT22;24727;51.974;20.868;2022-12-07T08:28:05;1.20;99.90
38938;DHT22;24727;51.974;20.868;2022-12-07T08:30:32;1.20;99.90
38938;DHT22;24727;51.974;20.868;2022-12-07T08:33:05;1.10;99.90
38938;DHT22;24727;51.974;20.868;2022-12-07T08:35:33;1.20;99.90
38938;DHT22;24727;51.974;20.868;2022-12-07T08:38:02;1.20;99.90
38938;DHT22;24727;51.974;20.868;2022-12-07T08:40:32;1.30;99.90
38938;DHT22;24727;51.974;20.868;2022-12-07T08:42:59;1.30;99.90
38938;DHT22;24727;51.974;20.868;2022-12-07T08:45:41;1.30;99.90
38938;DHT22;24727;51.974;20.868;2022-12-07T08:48:08;1.40;99.90
38938;DHT22;24727;51.974;20.868;2022-12-07T08:50:38;1.40;99.90
38938;DHT22;24727;51.974;20.868;2022-12-07T08:53:05;1.40;99.90
38938;DHT22;24727;51.974;20.868;2022-12-07T08:55:34;1.40;99.90
38938;DHT22;24727;51.974;20.868;2022-12-07T08:58:03;1.50;99.90
38938;DHT22;24727;51.974;20.868;2022-12-07T09:00:29;1.50;99.90
38938;DHT22;24727;51.974;20.868;2022-12-07T09:02:59;1.50;99.90
38938;DHT22;24727;51.974;20.868;2022-12-07T09:05:37;1.60;99.90
38938;DHT22;24727;51.974;20.868;2022-12-07T09:08:07;1.60;99.90
38938;DHT22;24727;51.974;20.868;2022-12-07T09:10:40;1.60;99.90
38938;DHT22;24727;51.974;20.868;2022-12-07T09:13:08;1.70;99.90
38938;DHT22;24727;51.974;20.868;2022-12-07T09:15:44;1.70;99.90
38938;DHT22;24727;51.974;20.868;2022-12-07T09:18:17;1.70;99.90
38938;DHT22;24727;51.974;20.868;2022-12-07T09:20:47;1.70;99.90
38938;DHT22;24727;51.974;20.868;2022-12-07T09:23:34;1.80;99.90
38938;DHT22;24727;51.974;20.868;2022-12-07T09:28:44;1.80;99.40
38938;DHT22;24727;51.974;20.868;2022-12-07T09:34:08;1.80;98.60
38938;DHT22;24727;51.974;20.868;2022-12-07T09:37:13;1.80;98.20
38938;DHT22;24727;51.974;20.868;2022-12-07T09:39:40;1.90;98.00
38938;DHT22;24727;51.974;20.868;2022-12-07T09:42:46;1.90;97.50
38938;DHT22;24727;51.974;20.868;2022-12-07T09:45:29;1.90;96.40
38938;DHT22;24727;51.974;20.868;2022-12-07T09:48:17;1.90;96.20
38938;DHT22;24727;51.974;20.868;2022-12-07T09:50:48;1.90;96.10
38938;DHT22;24727;51.974;20.868;2022-12-07T09:53:33;1.90;96.10
38938;DHT22;24727;51.974;20.868;2022-12-07T09:56:02;2.00;95.20
38938;DHT22;24727;51.974;20.868;2022-12-07T09:58:42;1.90;95.00
38938;DHT22;24727;51.974;20.868;2022-12-07T10:01:20;1.90;94.10
38938;DHT22;24727;51.974;20.868;2022-12-07T10:04:09;2.00;93.60
38938;DHT22;24727;51.974;20.868;2022-12-07T10:06:44;2.00;94.00
38938;DHT22;24727;51.974;20.868;2022-12-07T10:09:21;2.00;94.00
38938;DHT22;24727;51.974;20.868;2022-12-07T10:12:08;2.00;93.70
38938;DHT22;24727;51.974;20.868;2022-12-07T10:17:36;2.00;93.10
38938;DHT22;24727;51.974;20.868;2022-12-07T10:20:15;2.00;92.60
38938;DHT22;24727;51.974;20.868;2022-12-07T10:23:03;2.00;92.00
38938;DHT22;24727;51.974;20.868;2022-12-07T10:25:39;2.00;92.40
38938;DHT22;24727;51.974;20.868;2022-12-07T10:28:14;2.00;92.30
38938;DHT22;24727;51.974;20.868;2022-12-07T10:31:19;2.10;93.90
38938;DHT22;24727;51.974;20.868;2022-12-07T10:33:55;2.00;93.40
38938;DHT22;24727;51.974;20.868;2022-12-07T10:39:22;2.00;93.00
38938;DHT22;24727;51.974;20.868;2022-12-07T10:45:16;2.00;92.90
38938;DHT22;24727;51.974;20.868;2022-12-07T10:48:19;2.00;92.60
38938;DHT22;24727;51.974;20.868;2022-12-07T10:54:26;1.90;92.70
38938;DHT22;24727;51.974;20.868;2022-12-07T11:15:17;1.90;91.50
38938;DHT22;24727;51.974;20.868;2022-12-07T11:18:09;2.00;91.00
38938;DHT22;24727;51.974;20.868;2022-12-07T11:23:49;1.90;91.10
38938;DHT22;24727;51.974;20.868;2022-12-07T11:42:21;1.80;94.20
38938;DHT22;24727;51.974;20.868;2022-12-07T11:44:57;1.90;94.80
38938;DHT22;24727;51.974;20.868;2022-12-07T11:55:43;2.00;95.70
38938;DHT22;24727;51.974;20.868;2022-12-07T12:07:05;2.00;95.50
38938;DHT22;24727;51.974;20.868;2022-12-07T12:13:07;2.00;95.60
38938;DHT22;24727;51.974;20.868;2022-12-07T12:15:56;1.90;95.50
38938;DHT22;24727;51.974;20.868;2022-12-07T12:19:05;2.00;95.40
38938;DHT22;24727;51.974;20.868;2022-12-07T12:21:40;2.00;95.10
38938;DHT22;24727;51.974;20.868;2022-12-07T12:24:19;1.90;94.50
38938;DHT22;24727;51.974;20.868;2022-12-07T12:26:53;1.90;93.60
38938;DHT22;24727;51.974;20.868;2022-12-07T12:29:30;2.00;93.10
38938;DHT22;24727;51.974;20.868;2022-12-07T12:35:42;1.90;92.50
38938;DHT22;24727;51.974;20.868;2022-12-07T12:38:33;2.00;91.60
38938;DHT22;24727;51.974;20.868;2022-12-07T12:45:48;2.00;91.50
38938;DHT22;24727;51.974;20.868;2022-12-07T12:50:37;2.00;90.90
38938;DHT22;24727;51.974;20.868;2022-12-07T12:53:25;2.00;91.30
38938;DHT22;24727;51.974;20.868;2022-12-07T12:58:47;2.00;91.50
38938;DHT22;24727;51.974;20.868;2022-12-07T13:03:59;2.00;91.20
38938;DHT22;24727;51.974;20.868;2022-12-07T13:08:54;2.00;90.50
38938;DHT22;24727;51.974;20.868;2022-12-07T13:11:44;2.10;90.50
38938;DHT22;24727;51.974;20.868;2022-12-07T13:18:01;2.00;89.80
38938;DHT22;24727;51.974;20.868;2022-12-07T13:29:21;2.00;86.70
38938;DHT22;24727;51.974;20.868;2022-12-07T13:31:55;2.00;86.00
38938;DHT22;24727;51.974;20.868;2022-12-07T13:34:40;2.00;84.40
38938;DHT22;24727;51.974;20.868;2022-12-07T13:37:25;2.00;84.40
38938;DHT22;24727;51.974;20.868;2022-12-07T13:39:58;2.00;85.20
38938;DHT22;24727;51.974;20.868;2022-12-07T13:42:26;2.00;85.20
38938;DHT22;24727;51.974;20.868;2022-12-07T13:44:56;2.00;85.40
38938;DHT22;24727;51.974;20.868;2022-12-07T13:47:41;1.90;83.60
38938;DHT22;24727;51.974;20.868;2022-12-07T13:50:27;1.90;83.30
38938;DHT22;24727;51.974;20.868;2022-12-07T13:53:00;1.90;83.50
38938;DHT22;24727;51.974;20.868;2022-12-07T13:55:33;1.90;84.80
38938;DHT22;24727;51.974;20.868;2022-12-07T13:58:00;1.90;84.30
38938;DHT22;24727;51.974;20.868;2022-12-07T14:00:44;1.90;85.20
38938;DHT22;24727;51.974;20.868;2022-12-07T14:05:41;1.80;84.40
38938;DHT22;24727;51.974;20.868;2022-12-07T14:10:59;1.80;84.50
38938;DHT22;24727;51.974;20.868;2022-12-07T14:13:35;1.70;84.30
38938;DHT22;24727;51.974;20.868;2022-12-07T14:16:29;1.70;84.70
38938;DHT22;24727;51.974;20.868;2022-12-07T14:18:57;1.70;82.80
38938;DHT22;24727;51.974;20.868;2022-12-07T14:21:28;1.60;82.00
38938;DHT22;24727;51.974;20.868;2022-12-07T14:26:39;1.60;82.90
38938;DHT22;24727;51.974;20.868;2022-12-07T14:31:58;1.50;84.00
38938;DHT22;24727;51.974;20.868;2022-12-07T14:34:28;1.50;85.70
38938;DHT22;24727;51.974;20.868;2022-12-07T14:36:54;1.40;85.60
38938;DHT22;24727;51.974;20.868;2022-12-07T14:39:20;1.30;86.10
38938;DHT22;24727;51.974;20.868;2022-12-07T14:41:52;1.30;87.20
38938;DHT22;24727;51.974;20.868;2022-12-07T14:44:23;1.30;88.20
38938;DHT22;24727;51.974;20.868;2022-12-07T14:46:50;1.30;88.80
38938;DHT22;24727;51.974;20.868;2022-12-07T14:49:18;1.20;89.30
38938;DHT22;24727;51.974;20.868;2022-12-07T14:51:52;1.20;89.80
38938;DHT22;24727;51.974;20.868;2022-12-07T14:54:26;1.30;90.80
38938;DHT22;24727;51.974;20.868;2022-12-07T14:57:06;1.30;90.50
38938;DHT22;24727;51.974;20.868;2022-12-07T14:59:43;1.30;90.30
38938;DHT22;24727;51.974;20.868;2022-12-07T15:02:14;1.20;90.30
38938;DHT22;24727;51.974;20.868;2022-12-07T15:04:44;1.20;90.80
38938;DHT22;24727;51.974;20.868;2022-12-07T15:07:24;1.30;91.50
38938;DHT22;24727;51.974;20.868;2022-12-07T15:09:53;1.30;91.40
38938;DHT22;24727;51.974;20.868;2022-12-07T15:12:22;1.30;91.50
38938;DHT22;24727;51.974;20.868;2022-12-07T15:14:51;1.30;91.60
38938;DHT22;24727;51.974;20.868;2022-12-07T15:17:19;1.30;91.70
38938;DHT22;24727;51.974;20.868;2022-12-07T15:19:46;1.40;92.50
38938;DHT22;24727;51.974;20.868;2022-12-07T15:22:14;1.40;91.70
38938;DHT22;24727;51.974;20.868;2022-12-07T15:24:41;1.40;91.40
38938;DHT22;24727;51.974;20.868;2022-12-07T15:27:08;1.30;91.40
38938;DHT22;24727;51.974;20.868;2022-12-07T15:29:36;1.40;92.10
38938;DHT22;24727;51.974;20.868;2022-12-07T15:32:01;1.40;91.90
38938;DHT22;24727;51.974;20.868;2022-12-07T15:34:28;1.30;91.30
38938;DHT22;24727;51.974;20.868;2022-12-07T15:36:57;1.20;91.70
38938;DHT22;24727;51.974;20.868;2022-12-07T15:39:24;1.20;92.00
38938;DHT22;24727;51.974;20.868;2022-12-07T15:41:52;1.20;92.30
38938;DHT22;24727;51.974;20.868;2022-12-07T15:44:18;1.20;93.00
38938;DHT22;24727;51.974;20.868;2022-12-07T15:47:04;1.20;93.70
38938;DHT22;24727;51.974;20.868;2022-12-07T15:49:30;1.20;94.30
38938;DHT22;24727;51.974;20.868;2022-12-07T15:51:57;1.20;94.90
38938;DHT22;24727;51.974;20.868;2022-12-07T15:54:26;1.20;95.00
38938;DHT22;24727;51.974;20.868;2022-12-07T15:56:56;1.20;95.10
38938;DHT22;24727;51.974;20.868;2022-12-07T15:59:23;1.30;95.40
38938;DHT22;24727;51.974;20.868;2022-12-07T16:01:49;1.30;95.60
38938;DHT22;24727;51.974;20.868;2022-12-07T16:04:15;1.30;95.50
38938;DHT22;24727;51.974;20.868;2022-12-07T16:06:42;1.30;95.40
38938;DHT22;24727;51.974;20.868;2022-12-07T16:09:08;1.30;95.40
38938;DHT22;24727;51.974;20.868;2022-12-07T16:11:35;1.30;95.10
38938;DHT22;24727;51.974;20.868;2022-12-07T16:14:02;1.40;95.10
38938;DHT22;24727;51.974;20.868;2022-12-07T16:16:29;1.30;94.70
38938;DHT22;24727;51.974;20.868;2022-12-07T16:18:57;1.40;94.60
38938;DHT22;24727;51.974;20.868;2022-12-07T16:21:25;1.40;94.20
38938;DHT22;24727;51.974;20.868;2022-12-07T16:23:53;1.40;94.00
38938;DHT22;24727;51.974;20.868;2022-12-07T16:26:21;1.40;93.40
38938;DHT22;24727;51.974;20.868;2022-12-07T16:28:52;1.40;92.50
38938;DHT22;24727;51.974;20.868;2022-12-07T16:31:20;1.40;92.00
38938;DHT22;24727;51.974;20.868;2022-12-07T16:33:47;1.40;91.70
38938;DHT22;24727;51.974;20.868;2022-12-07T16:36:14;1.40;91.00
38938;DHT22;24727;51.974;20.868;2022-12-07T16:38:42;1.40;91.10
38938;DHT22;24727;51.974;20.868;2022-12-07T16:41:09;1.40;91.10
38938;DHT22;24727;51.974;20.868;2022-12-07T16:43:36;1.40;91.00
38938;DHT22;24727;51.974;20.868;2022-12-07T16:46:03;1.30;91.00
38938;DHT22;24727;51.974;20.868;2022-12-07T16:48:37;1.40;91.20
38938;DHT22;24727;51.974;20.868;2022-12-07T16:51:06;1.40;91.50
38938;DHT22;24727;51.974;20.868;2022-12-07T16:53:34;1.40;91.30
38938;DHT22;24727;51.974;20.868;2022-12-07T16:56:02;1.40;91.00
38938;DHT22;24727;51.974;20.868;2022-12-07T16:58:30;1.50;91.20
38938;DHT22;24727;51.974;20.868;2022-12-07T17:00:56;1.40;90.80
38938;DHT22;24727;51.974;20.868;2022-12-07T17:03:22;1.40;90.90
38938;DHT22;24727;51.974;20.868;2022-12-07T17:05:48;1.50;91.00
38938;DHT22;24727;51.974;20.868;2022-12-07T17:08:15;1.50;91.00
38938;DHT22;24727;51.974;20.868;2022-12-07T17:10:43;1.50;90.70
38938;DHT22;24727;51.974;20.868;2022-12-07T17:13:13;1.40;90.60
38938;DHT22;24727;51.974;20.868;2022-12-07T17:16:01;1.50;90.80
38938;DHT22;24727;51.974;20.868;2022-12-07T17:18:34;1.50;90.80
38938;DHT22;24727;51.974;20.868;2022-12-07T17:21:07;1.50;90.80
38938;DHT22;24727;51.974;20.868;2022-12-07T17:23:35;1.50;90.30
38938;DHT22;24727;51.974;20.868;2022-12-07T17:26:12;1.50;88.90
38938;DHT22;24727;51.974;20.868;2022-12-07T17:28:39;1.60;88.00
38938;DHT22;24727;51.974;20.868;2022-12-07T17:31:08;1.60;86.90
38938;DHT22;24727;51.974;20.868;2022-12-07T17:33:41;1.60;87.30
38938;DHT22;24727;51.974;20.868;2022-12-07T17:38:44;1.60;85.90
38938;DHT22;24727;51.974;20.868;2022-12-07T17:41:23;1.60;85.00
38938;DHT22;24727;51.974;20.868;2022-12-07T17:44:16;1.60;84.10
38938;DHT22;24727;51.974;20.868;2022-12-07T17:46:42;1.70;84.00
38938;DHT22;24727;51.974;20.868;2022-12-07T17:49:09;1.60;83.50
38938;DHT22;24727;51.974;20.868;2022-12-07T17:51:36;1.70;83.20
38938;DHT22;24727;51.974;20.868;2022-12-07T17:54:21;1.70;83.30
38938;DHT22;24727;51.974;20.868;2022-12-07T17:56:48;1.70;83.20
38938;DHT22;24727;51.974;20.868;2022-12-07T17:59:15;1.70;82.40
38938;DHT22;24727;51.974;20.868;2022-12-07T18:01:43;1.70;82.30
38938;DHT22;24727;51.974;20.868;2022-12-07T18:04:11;1.70;82.30
38938;DHT22;24727;51.974;20.868;2022-12-07T18:06:42;1.70;82.30
38938;DHT22;24727;51.974;20.868;2022-12-07T18:09:09;1.70;83.00
38938;DHT22;24727;51.974;20.868;2022-12-07T18:11:36;1.70;83.20
38938;DHT22;24727;51.974;20.868;2022-12-07T18:14:03;1.70;83.10
38938;DHT22;24727;51.974;20.868;2022-12-07T18:16:30;1.70;83.00
38938;DHT22;24727;51.974;20.868;2022-12-07T18:19:04;1.70;83.40
38938;DHT22;24727;51.974;20.868;2022-12-07T18:21:32;1.70;83.00
38938;DHT22;24727;51.974;20.868;2022-12-07T18:24:02;1.70;82.70
38938;DHT22;24727;51.974;20.868;2022-12-07T18:26:32;1.70;82.80
38938;DHT22;24727;51.974;20.868;2022-12-07T18:29:01;1.70;80.10
38938;DHT22;24727;51.974;20.868;2022-12-07T18:31:28;1.70;80.10
38938;DHT22;24727;51.974;20.868;2022-12-07T18:33:55;1.80;78.20
38938;DHT22;24727;51.974;20.868;2022-12-07T18:36:23;1.80;77.10
38938;DHT22;24727;51.974;20.868;2022-12-07T18:38:49;1.80;77.80
38938;DHT22;24727;51.974;20.868;2022-12-07T18:41:16;1.80;77.80
38938;DHT22;24727;51.974;20.868;2022-12-07T18:43:44;1.80;78.70